Time;durP1;ratioP1;P1;durP2;ratioP2;P2;SDS_P1;SDS_P2;PMS_P1;PMS_P2;Temp;Humidity;BMP_temperature;BMP_pressure;BME280_temperature;BME280_humidity;BME280_pressure;Samples;Min_cycle;Max_cycle;Signal;HPM_P1;HPM_P2
2023/09/23 00:00:34;;;;;;;18.17;12.65;;;;;;;19.57;92.13;92991.97;5088689;28;20179;-76
2023/09/23 00:02:59;;;;;;;20.20;12.20;;;;;;;19.35;92.60;92979.06;5089521;28;20219;-76
2023/09/23 00:05:26;;;;;;;17.98;11.60;;;;;;;19.42;93.38;92990.69;5088541;28;20195;-76
2023/09/23 00:07:52;;;;;;;20.05;13.52;;;;;;;19.33;93.93;92987.31;5089282;28;20232;-75
2023/09/23 00:10:17;;;;;;;20.80;11.87;;;;;;;19.23;94.57;92977.09;5087659;28;20183;-76
2023/09/23 00:12:43;;;;;;;21.93;12.13;;;;;;;19.16;94.75;92976.81;5089020;28;20238;-76
2023/09/23 00:15:12;;;;;;;14.07;11.57;;;;;;;19.18;94.73;92985.22;5087745;28;20203;-76
2023/09/23 00:17:39;;;;;;;19.57;12.63;;;;;;;19.03;95.40;92991.06;5085873;28;20219;-76
2023/09/23 00:20:16;;;;;;;16.57;12.53;;;;;;;18.97;95.10;92976.50;5089695;28;20243;-77
2023/09/23 00:22:47;;;;;;;25.90;13.03;;;;;;;18.91;95.36;92985.72;5081455;28;20182;-76
2023/09/23 00:25:16;;;;;;;16.47;12.30;;;;;;;19.02;95.31;92989.50;5087064;28;20192;-76
2023/09/23 00:27:41;;;;;;;16.37;11.87;;;;;;;19.03;94.80;92989.22;5080816;28;20214;-76
2023/09/23 00:30:09;;;;;;;16.97;11.60;;;;;;;19.12;94.41;92994.44;5083979;28;20194;-75
2023/09/23 00:32:34;;;;;;;20.87;12.00;;;;;;;19.05;95.15;92973.78;5063346;28;20281;-76
2023/09/23 00:35:00;;;;;;;16.70;10.90;;;;;;;19.06;94.77;92988.56;5088362;28;20188;-75
2023/09/23 00:37:25;;;;;;;13.67;12.13;;;;;;;18.96;94.75;92966.97;5089276;28;20210;-76
2023/09/23 00:39:51;;;;;;;17.10;12.47;;;;;;;19.03;95.06;92969.91;5089283;28;20242;-77
2023/09/23 00:42:19;;;;;;;20.50;12.90;;;;;;;18.95;95.61;92983.97;5087142;28;20196;-76
2023/09/23 00:44:45;;;;;;;17.50;12.37;;;;;;;18.89;96.22;92986.03;5088645;28;20221;-75
2023/09/23 00:47:14;;;;;;;15.83;12.10;;;;;;;18.89;96.49;92972.00;5089261;28;20198;-76
2023/09/23 00:49:44;;;;;;;14.23;11.37;;;;;;;18.87;96.27;92979.50;5083328;28;20253;-75
2023/09/23 00:52:14;;;;;;;16.33;11.13;;;;;;;18.67;95.12;92981.00;5081396;28;20251;-76
2023/09/23 00:54:41;;;;;;;18.20;12.27;;;;;;;18.70;95.88;92961.84;5087979;28;20224;-76
2023/09/23 00:57:07;;;;;;;13.37;11.97;;;;;;;18.56;96.86;92955.22;5075482;28;20228;-76
2023/09/23 00:59:35;;;;;;;17.33;11.77;;;;;;;18.50;98.10;92953.84;5088698;28;20247;-77
2023/09/23 01:02:02;;;;;;;20.03;11.17;;;;;;;18.51;97.63;92958.03;5089614;28;20210;-77
2023/09/23 01:04:27;;;;;;;18.20;10.80;;;;;;;18.64;96.16;92957.06;5089137;28;20231;-77
2023/09/23 01:06:53;;;;;;;17.03;10.87;;;;;;;18.70;95.33;92959.19;5088316;28;20224;-76
2023/09/23 01:09:21;;;;;;;13.23;12.00;;;;;;;18.70;95.16;92966.34;5087601;28;20265;-76
2023/09/23 01:11:49;;;;;;;17.73;11.80;;;;;;;18.71;95.07;92957.31;5070233;28;20195;-76
2023/09/23 01:14:14;;;;;;;15.00;11.30;;;;;;;18.66;96.01;92966.22;5088457;28;20230;-76
2023/09/23 01:16:41;;;;;;;19.63;11.37;;;;;;;18.65;96.20;92967.31;5083638;28;20205;-76
2023/09/23 01:19:06;;;;;;;18.57;11.10;;;;;;;18.69;95.95;92968.22;5086766;28;20218;-76
2023/09/23 01:21:32;;;;;;;15.57;11.70;;;;;;;18.70;95.54;92975.06;5088755;28;20210;-76
2023/09/23 01:23:57;;;;;;;17.77;12.07;;;;;;;18.62;96.36;92975.09;5071117;28;20218;-76
2023/09/23 01:26:23;;;;;;;16.13;11.90;;;;;;;18.61;95.38;92970.91;5089072;28;20205;-76
2023/09/23 01:28:49;;;;;;;18.67;11.13;;;;;;;18.64;96.43;92973.72;5083886;28;20289;-77
2023/09/23 01:31:15;;;;;;;16.40;11.87;;;;;;;18.64;96.76;92975.56;5089161;28;20187;-76
2023/09/23 01:33:40;;;;;;;15.93;12.77;;;;;;;18.54;97.73;92973.25;5072970;28;20243;-76
2023/09/23 01:36:05;;;;;;;13.50;12.03;;;;;;;18.51;97.31;92972.03;5064538;28;20200;-76
2023/09/23 01:38:31;;;;;;;15.37;12.53;;;;;;;18.36;98.12;92966.47;5056603;28;20247;-76
2023/09/23 01:40:57;;;;;;;17.23;12.87;;;;;;;18.41;98.26;92961.06;5087299;28;20170;-76
2023/09/23 01:43:22;;;;;;;13.37;11.80;;;;;;;18.46;97.01;92972.22;5076546;28;20348;-76
2023/09/23 01:45:48;;;;;;;16.07;11.87;;;;;;;18.45;96.69;92967.25;5085832;28;20247;-76
2023/09/23 01:48:14;;;;;;;22.67;12.33;;;;;;;18.48;96.67;92966.59;5082928;28;20231;-76
2023/09/23 01:50:41;;;;;;;13.30;11.90;;;;;;;18.52;96.19;92970.19;5088380;28;20198;-76
2023/09/23 01:53:08;;;;;;;19.23;11.73;;;;;;;18.16;96.15;92925.66;5077242;28;20232;-76
2023/09/23 01:55:34;;;;;;;15.70;11.80;;;;;;;18.51;96.29;92965.97;5085335;28;20184;-76
2023/09/23 01:58:00;;;;;;;14.63;11.00;;;;;;;18.47;97.27;92970.34;5083850;28;20258;-76
2023/09/23 02:00:28;;;;;;;17.87;11.57;;;;;;;18.45;97.01;92954.81;5057174;28;20196;-76
2023/09/23 02:02:54;;;;;;;16.90;12.40;;;;;;;18.34;98.31;92952.78;5084518;28;20247;-77
2023/09/23 02:05:27;;;;;;;14.73;11.20;;;;;;;18.42;98.47;92965.22;5073135;28;20214;-76
2023/09/23 02:07:53;;;;;;;17.73;12.40;;;;;;;18.33;98.94;92964.47;5076009;28;20230;-77
2023/09/23 02:10:24;;;;;;;13.70;11.57;;;;;;;18.29;98.92;92964.31;5091480;28;20234;-76
2023/09/23 02:12:50;;;;;;;13.43;12.03;;;;;;;18.25;99.93;92970.56;5083666;28;20233;-76
2023/09/23 02:15:15;;;;;;;22.53;12.60;;;;;;;18.32;100.00;92960.28;5085438;28;20218;-76
2023/09/23 02:17:45;;;;;;;20.17;12.50;;;;;;;18.19;99.71;92966.53;5086280;28;20896;-76
2023/09/23 02:20:18;;;;;;;18.33;12.03;;;;;;;18.18;99.42;92978.22;5085254;28;20178;-76
2023/09/23 02:22:45;;;;;;;19.00;13.30;;;;;;;18.21;99.48;92970.41;5081468;28;20174;-76
2023/09/23 02:25:12;;;;;;;18.87;12.90;;;;;;;17.99;100.00;92948.72;5091154;28;20225;-77
2023/09/23 02:27:38;;;;;;;19.40;12.97;;;;;;;18.23;100.00;92975.38;5091049;28;20183;-76
2023/09/23 02:30:09;;;;;;;17.90;12.77;;;;;;;18.02;100.00;92966.59;5091711;28;20194;-77
2023/09/23 02:32:45;;;;;;;22.73;12.17;;;;;;;18.10;99.90;92979.00;5074830;28;20205;-76
2023/09/23 02:35:12;;;;;;;16.63;12.53;;;;;;;18.10;99.27;92979.75;5086705;28;20825;-77
2023/09/23 02:37:43;;;;;;;20.47;12.87;;;;;;;17.99;98.60;92969.84;5086850;28;20246;-76
2023/09/23 02:40:12;;;;;;;17.93;11.80;;;;;;;18.07;97.82;92990.97;5077813;28;20204;-76
2023/09/23 02:42:42;;;;;;;18.77;12.67;;;;;;;18.21;98.31;92986.25;5091377;28;20457;-75
2023/09/23 02:45:09;;;;;;;18.23;12.30;;;;;;;18.13;98.47;92987.09;5083061;28;20190;-75
2023/09/23 02:47:36;;;;;;;17.57;11.80;;;;;;;17.96;99.00;92986.34;5086084;28;20206;-75
2023/09/23 02:50:09;;;;;;;17.00;11.90;;;;;;;18.10;98.79;92997.50;5089109;28;20190;-75
2023/09/23 02:52:41;;;;;;;16.33;12.30;;;;;;;18.01;98.98;92994.09;5086767;28;20183;-75
2023/09/23 02:55:15;;;;;;;16.03;11.20;;;;;;;18.11;98.02;92999.03;5085249;28;20190;-75
2023/09/23 02:57:45;;;;;;;17.37;12.67;;;;;;;18.13;98.01;93002.16;5082726;28;20277;-76
2023/09/23 03:00:17;;;;;;;23.87;12.23;;;;;;;17.99;97.16;92989.13;5063123;28;20190;-75
2023/09/23 03:02:52;;;;;;;20.87;12.10;;;;;;;18.24;96.66;93004.13;5068717;28;20922;-76
2023/09/23 03:05:18;;;;;;;24.53;12.30;;;;;;;18.08;96.96;92995.19;5071494;28;20190;-76
2023/09/23 03:07:50;;;;;;;15.97;12.60;;;;;;;18.00;98.03;93011.03;5068893;28;20187;-75
2023/09/23 03:10:19;;;;;;;14.63;12.40;;;;;;;18.08;97.16;93010.25;5069094;28;20184;-76
2023/09/23 03:12:51;;;;;;;16.67;12.70;;;;;;;18.13;97.02;93007.44;5066532;28;20231;-76
2023/09/23 03:15:20;;;;;;;17.30;12.73;;;;;;;18.26;96.13;93011.75;5069332;28;20189;-75
2023/09/23 03:17:51;;;;;;;13.87;11.60;;;;;;;18.09;96.83;93003.84;5066683;28;20203;-76
2023/09/23 03:20:25;;;;;;;17.83;12.47;;;;;;;18.11;96.18;92994.53;5069094;28;20211;-75
2023/09/23 03:22:52;;;;;;;19.23;12.97;;;;;;;18.23;95.92;93002.59;5070185;28;20774;-76
2023/09/23 03:25:19;;;;;;;15.70;12.60;;;;;;;18.15;97.43;92997.34;5067632;28;20192;-76
2023/09/23 03:27:45;;;;;;;17.27;12.37;;;;;;;18.15;96.42;92994.69;5070335;28;20171;-76
2023/09/23 03:30:12;;;;;;;16.10;11.57;;;;;;;18.12;95.94;93009.31;5049883;28;20222;-75
2023/09/23 03:32:38;;;;;;;12.90;11.50;;;;;;;18.05;96.77;93009.03;5059678;28;20174;-75
2023/09/23 03:35:04;;;;;;;18.83;12.17;;;;;;;18.04;97.34;93009.34;5070034;28;20247;-76
2023/09/23 03:37:32;;;;;;;19.80;12.20;;;;;;;18.04;97.32;93009.34;5057717;28;20215;-75
2023/09/23 03:39:58;;;;;;;19.37;11.73;;;;;;;17.91;98.30;93010.28;5063677;28;20195;-76
2023/09/23 03:42:23;;;;;;;16.47;12.73;;;;;;;17.82;100.00;93009.50;5063476;28;20180;-76
2023/09/23 03:44:48;;;;;;;29.03;13.17;;;;;;;17.68;99.11;93012.34;5059606;28;20211;-75
2023/09/23 03:47:15;;;;;;;15.83;12.10;;;;;;;17.79;98.84;93018.06;5062122;28;20190;-75
2023/09/23 03:49:40;;;;;;;19.97;13.03;;;;;;;17.74;98.90;93005.00;5069723;28;20297;-75
2023/09/23 03:52:05;;;;;;;19.97;11.90;;;;;;;17.81;100.00;93014.00;5051914;28;20184;-75
2023/09/23 03:54:33;;;;;;;23.43;12.37;;;;;;;17.70;99.31;93009.38;5061229;28;20759;-76
2023/09/23 03:56:58;;;;;;;20.87;11.93;;;;;;;17.78;98.08;93005.94;5062514;28;20175;-75
2023/09/23 03:59:25;;;;;;;17.83;12.80;;;;;;;17.74;98.43;93003.16;5068269;28;20245;-76
2023/09/23 04:01:51;;;;;;;22.00;12.30;;;;;;;17.76;98.32;93016.81;5070083;28;20187;-76
2023/09/23 04:04:17;;;;;;;20.50;11.90;;;;;;;17.73;98.68;93009.50;5082366;28;20237;-76
2023/09/23 04:06:43;;;;;;;17.30;13.63;;;;;;;17.82;98.59;93017.44;5081153;28;20221;-76
2023/09/23 04:09:12;;;;;;;19.50;11.53;;;;;;;17.67;99.56;93008.13;5064828;28;20216;-75
2023/09/23 04:11:37;;;;;;;15.30;12.83;;;;;;;17.67;99.55;93013.41;5068894;28;20178;-76
2023/09/23 04:14:03;;;;;;;24.10;13.00;;;;;;;17.69;99.02;93018.38;5051660;28;20288;-76
2023/09/23 04:16:28;;;;;;;21.33;11.77;;;;;;;17.73;98.27;93014.03;5066832;28;20269;-76
2023/09/23 04:18:53;;;;;;;17.53;11.30;;;;;;;17.69;100.00;93018.38;5073665;28;20559;-76
2023/09/23 04:21:21;;;;;;;18.03;11.20;;;;;;;17.72;99.39;93028.31;5085985;28;20194;-76
2023/09/23 04:23:48;;;;;;;18.70;13.43;;;;;;;17.68;99.23;93028.19;5087572;28;20213;-75
2023/09/23 04:26:14;;;;;;;23.33;11.77;;;;;;;17.69;98.26;93023.66;5089618;28;20193;-76
2023/09/23 04:28:39;;;;;;;22.07;12.80;;;;;;;17.80;97.98;93035.47;5088102;28;20309;-78
2023/09/23 04:31:06;;;;;;;20.47;12.57;;;;;;;17.81;100.00;93037.78;5076641;28;20195;-77
2023/09/23 04:33:32;;;;;;;24.20;14.07;;;;;;;17.91;100.00;93052.53;5080130;28;20234;-77
2023/09/23 04:35:58;;;;;;;18.47;12.93;;;;;;;17.80;100.00;93036.25;5089617;28;20235;-82
2023/09/23 04:38:26;;;;;;;12.13;11.13;;;;;;;17.91;98.09;93058.63;5093767;28;20236;-75
2023/09/23 04:40:52;;;;;;;17.13;12.00;;;;;;;18.00;97.99;93066.53;5087094;28;20185;-83
2023/09/23 04:43:17;;;;;;;18.37;12.27;;;;;;;18.04;97.85;93064.81;5068778;28;20281;-81
2023/09/23 04:45:43;;;;;;;19.07;12.10;;;;;;;18.10;98.43;93072.25;5078576;28;20192;-81
2023/09/23 04:48:08;;;;;;;22.10;14.33;;;;;;;18.10;99.85;93066.22;5076274;28;20318;-80
2023/09/23 04:50:35;;;;;;;20.20;11.70;;;;;;;18.19;99.92;93065.13;5079492;28;20186;-90
2023/09/23 04:53:02;;;;;;;16.57;12.10;;;;;;;18.18;100.00;93070.72;5088487;28;20325;-87
2023/09/23 04:55:28;;;;;;;19.90;11.80;;;;;;;18.22;100.00;93071.63;5084798;28;20196;-79
2023/09/23 04:57:55;;;;;;;14.27;11.37;;;;;;;18.23;100.00;93073.16;5085745;28;20214;-86
2023/09/23 05:00:21;;;;;;;20.37;12.23;;;;;;;18.28;100.00;93068.50;5083386;28;20184;-82
2023/09/23 05:02:50;;;;;;;16.57;12.47;;;;;;;18.34;98.97;93067.25;5080295;28;20178;-80
2023/09/23 05:05:19;;;;;;;13.67;11.00;;;;;;;18.45;98.47;93067.72;5061712;28;20253;-80
2023/09/23 05:07:45;;;;;;;20.23;12.27;;;;;;;18.52;97.82;93073.31;5069655;28;20188;-81
2023/09/23 05:10:11;;;;;;;22.73;12.83;;;;;;;18.69;97.58;93070.63;5087957;28;20186;-78
2023/09/23 05:12:37;;;;;;;20.83;13.57;;;;;;;18.84;96.87;93080.66;5087348;28;20244;-80
2023/09/23 05:15:03;;;;;;;19.73;12.40;;;;;;;18.87;96.59;93064.16;5087483;28;20183;-78
2023/09/23 05:17:29;;;;;;;23.67;12.90;;;;;;;18.98;96.78;93075.94;5088274;28;20206;-75
2023/09/23 05:19:54;;;;;;;20.40;12.77;;;;;;;19.02;96.12;93063.63;5087090;28;20206;-77
2023/09/23 05:22:20;;;;;;;16.53;12.33;;;;;;;19.21;96.09;93084.41;5088807;28;20213;-78
2023/09/23 05:24:47;;;;;;;18.77;12.80;;;;;;;19.30;95.92;93080.63;5068586;28;20239;-76
2023/09/23 05:27:14;;;;;;;13.93;12.23;;;;;;;19.35;96.86;93080.44;5067194;28;20200;-82
2023/09/23 05:29:40;;;;;;;13.90;11.77;;;;;;;19.46;96.57;93083.50;5067619;28;20219;-84
2023/09/23 05:32:07;;;;;;;22.57;13.03;;;;;;;19.38;97.44;93073.75;5054200;28;20183;-77
2023/09/23 05:34:32;;;;;;;21.03;12.43;;;;;;;19.54;95.86;93072.88;5064124;28;20241;-77
2023/09/23 05:36:58;;;;;;;22.15;13.07;;;;;;;19.80;94.24;93076.09;5039998;28;20200;-77
2023/09/23 05:39:23;;;;;;;24.30;12.60;;;;;;;19.79;94.91;93074.56;5082619;28;20230;-76
2023/09/23 05:41:51;;;;;;;17.00;13.60;;;;;;;19.93;93.91;93067.13;5086295;28;20195;-76
2023/09/23 05:44:18;;;;;;;18.47;12.20;;;;;;;20.11;91.50;93071.16;5076414;28;20218;-77
2023/09/23 05:46:45;;;;;;;21.73;12.23;;;;;;;20.09;91.05;93070.75;5069577;28;20189;-80
2023/09/23 05:49:12;;;;;;;19.08;11.38;;;;;;;20.24;90.41;93082.63;5069582;28;20223;-82
2023/09/23 05:51:37;;;;;;;16.80;11.87;;;;;;;20.52;88.81;93087.03;5071545;28;20193;-77
2023/09/23 05:54:03;;;;;;;15.03;11.73;;;;;;;20.71;89.34;93091.84;5071293;28;20232;-78
2023/09/23 05:56:28;;;;;;;14.18;12.00;;;;;;;20.88;88.25;93094.31;5070866;28;20197;-77
2023/09/23 05:58:54;;;;;;;15.82;11.40;;;;;;;20.92;86.99;93099.75;5071263;28;20233;-76
2023/09/23 06:01:20;;;;;;;19.73;12.23;;;;;;;21.18;84.39;93108.19;5071669;28;20199;-75
2023/09/23 06:03:45;;;;;;;15.25;12.18;;;;;;;20.81;88.12;93098.63;5082005;28;20247;-76
2023/09/23 06:06:11;;;;;;;18.73;12.23;;;;;;;20.92;88.40;93094.44;5090889;28;20255;-76
2023/09/23 06:08:37;;;;;;;15.15;13.20;;;;;;;20.99;88.02;93094.69;5091292;28;20236;-76
2023/09/23 06:11:05;;;;;;;18.38;13.38;;;;;;;21.01;88.55;93103.09;5089733;28;20215;-76
2023/09/23 06:13:32;;;;;;;18.58;11.98;;;;;;;21.02;88.04;93110.72;5089941;28;20239;-74
2023/09/23 06:16:05;;;;;;;18.50;12.52;;;;;;;21.23;86.63;93110.66;5088403;28;20184;-74
2023/09/23 06:18:31;;;;;;;19.00;11.98;;;;;;;21.37;84.54;93113.75;5084237;28;20253;-74
2023/09/23 06:21:04;;;;;;;19.00;11.75;;;;;;;21.36;85.93;93112.19;5089073;28;20190;-74
2023/09/23 06:23:31;;;;;;;14.90;12.40;;;;;;;21.40;85.22;93111.19;5089795;28;20228;-74
2023/09/23 06:25:57;;;;;;;22.30;12.98;;;;;;;21.19;83.10;93110.53;5091423;28;20188;-75
2023/09/23 06:28:23;;;;;;;24.20;12.20;;;;;;;21.61;80.02;93119.03;5089724;28;20228;-74
2023/09/23 06:30:48;;;;;;;17.33;12.70;;;;;;;21.79;81.23;93120.41;5091017;28;20241;-74
2023/09/23 06:33:14;;;;;;;26.02;12.38;;;;;;;21.60;82.07;93109.53;5098293;28;20231;-77
2023/09/23 06:35:39;;;;;;;20.63;12.23;;;;;;;21.40;84.69;93115.75;5076443;28;20267;-76
2023/09/23 06:38:05;;;;;;;24.38;12.52;;;;;;;21.54;83.37;93111.63;5089972;28;20221;-76
2023/09/23 06:40:30;;;;;;;19.23;12.48;;;;;;;21.66;82.22;93124.13;5087745;28;20202;-80
2023/09/23 06:42:56;;;;;;;16.27;11.95;;;;;;;21.47;82.58;93126.56;5090901;28;20228;-81
2023/09/23 06:45:21;;;;;;;24.52;13.85;;;;;;;21.52;83.69;93129.81;5087595;28;20191;-89
2023/09/23 06:47:46;;;;;;;17.75;12.75;;;;;;;21.85;81.29;93119.81;5072690;28;20178;-81
2023/09/23 06:50:12;;;;;;;18.67;12.02;;;;;;;22.06;79.47;93139.06;5081753;28;20190;-84
2023/09/23 06:52:37;;;;;;;19.20;12.93;;;;;;;21.81;80.56;93124.25;5089761;28;20269;-84
2023/09/23 06:55:03;;;;;;;23.50;12.23;;;;;;;21.72;81.43;93123.59;5089193;28;20254;-79
2023/09/23 06:57:28;;;;;;;15.90;12.75;;;;;;;22.05;79.21;93142.06;5081566;28;20256;-78
2023/09/23 06:59:53;;;;;;;20.75;12.43;;;;;;;22.21;77.94;93151.66;5084321;28;20218;-79
2023/09/23 07:02:19;;;;;;;18.40;13.02;;;;;;;21.92;79.38;93148.50;5091415;28;20196;-76
2023/09/23 07:04:45;;;;;;;18.45;13.40;;;;;;;22.22;78.45;93141.81;5069189;28;20230;-80
2023/09/23 07:07:11;;;;;;;16.17;11.45;;;;;;;22.45;77.39;93140.16;5080189;28;20902;-75
2023/09/23 07:09:36;;;;;;;25.30;11.77;;;;;;;22.70;76.12;93146.19;5089927;28;20229;-76
2023/09/23 07:12:02;;;;;;;20.35;11.07;;;;;;;22.68;75.18;93154.53;5091165;28;20185;-76
2023/09/23 07:14:29;;;;;;;24.23;11.30;;;;;;;22.33;77.76;93142.88;5085980;28;20226;-76
2023/09/23 07:16:55;;;;;;;19.83;12.52;;;;;;;22.24;78.41;93155.53;5090023;28;20195;-76
2023/09/23 07:19:21;;;;;;;17.05;11.65;;;;;;;22.51;76.76;93144.16;5087340;28;20227;-76
2023/09/23 07:21:47;;;;;;;19.30;12.60;;;;;;;22.38;78.79;93142.66;5084904;28;20262;-78
2023/09/23 07:24:12;;;;;;;14.15;11.07;;;;;;;22.95;74.29;93143.09;5089575;28;20241;-76
2023/09/23 07:26:38;;;;;;;24.15;11.85;;;;;;;23.18;74.05;93160.03;5087715;28;20190;-80
2023/09/23 07:29:04;;;;;;;18.38;11.52;;;;;;;23.08;73.96;93165.09;5085167;28;20859;-84
2023/09/23 07:31:29;;;;;;;21.52;12.00;;;;;;;23.32;71.86;93159.63;5089854;28;20249;-79
2023/09/23 07:33:54;;;;;;;17.13;11.93;;;;;;;23.29;71.44;93161.09;5090340;28;20298;-81
2023/09/23 07:36:20;;;;;;;13.48;12.10;;;;;;;23.24;70.43;93144.56;5090401;28;20183;-80
2023/09/23 07:38:45;;;;;;;64.50;19.60;;;;;;;22.94;73.13;93157.50;5090409;28;20227;-79
2023/09/23 07:41:11;;;;;;;22.85;13.50;;;;;;;22.90;72.92;93161.97;5090032;28;20182;-76
2023/09/23 07:43:38;;;;;;;16.50;12.35;;;;;;;23.02;72.96;93153.91;5089881;28;20222;-78
2023/09/23 07:46:04;;;;;;;18.08;11.68;;;;;;;23.64;70.26;93153.19;5088276;28;20188;-79
2023/09/23 07:48:29;;;;;;;21.80;12.40;;;;;;;23.66;69.46;93154.38;5085013;28;20223;-78
2023/09/23 07:50:55;;;;;;;19.52;12.25;;;;;;;23.77;69.64;93155.41;5090565;28;21037;-77
2023/09/23 07:53:21;;;;;;;15.93;11.05;;;;;;;23.84;68.58;93146.03;5089457;28;20232;-77
2023/09/23 07:55:47;;;;;;;19.05;11.15;;;;;;;24.03;66.48;93154.09;5089398;28;20186;-78
2023/09/23 07:58:12;;;;;;;24.75;11.48;;;;;;;23.63;67.42;93157.75;5088814;28;20245;-78
2023/09/23 08:00:38;;;;;;;21.35;10.95;;;;;;;23.46;69.30;93152.78;5090137;28;20334;-81
2023/09/23 08:03:04;;;;;;;19.05;10.98;;;;;;;23.92;66.91;93151.19;5089878;28;20224;-78
2023/09/23 08:05:29;;;;;;;20.67;10.93;;;;;;;24.13;65.17;93165.00;5088354;28;20188;-77
2023/09/23 08:07:55;;;;;;;25.48;11.57;;;;;;;23.70;65.88;93147.22;5088524;28;20231;-78
2023/09/23 08:10:20;;;;;;;13.73;10.68;;;;;;;24.21;64.28;93153.38;5083543;28;20240;-77
2023/09/23 08:12:46;;;;;;;14.77;11.75;;;;;;;24.33;63.37;93155.16;5084701;28;20250;-77
2023/09/23 08:15:11;;;;;;;18.17;11.35;;;;;;;24.42;63.28;93147.72;5085406;28;20193;-77
2023/09/23 08:17:40;;;;;;;23.77;12.02;;;;;;;24.17;63.12;93144.53;5083908;28;20210;-77
2023/09/23 08:20:17;;;;;;;21.38;11.93;;;;;;;24.21;62.66;93144.59;5082414;28;20195;-77
2023/09/23 08:22:44;;;;;;;15.68;10.65;;;;;;;24.53;61.46;93151.38;5086584;28;20179;-77
2023/09/23 08:25:10;;;;;;;22.45;11.57;;;;;;;24.42;60.94;93147.72;5058640;28;20270;-78
2023/09/23 08:27:36;;;;;;;15.57;11.20;;;;;;;24.70;60.00;93142.97;5087770;28;20204;-77
2023/09/23 08:30:01;;;;;;;21.58;11.07;;;;;;;24.53;61.01;93143.34;5088383;28;20254;-78
2023/09/23 08:32:26;;;;;;;13.25;10.35;;;;;;;24.26;60.44;93146.97;5072057;28;20221;-78
2023/09/23 08:34:52;;;;;;;24.50;12.30;;;;;;;24.60;61.15;93146.16;5088927;28;20217;-77
2023/09/23 08:37:17;;;;;;;14.35;10.88;;;;;;;25.02;60.38;93150.44;5089171;28;20213;-78
2023/09/23 08:39:42;;;;;;;19.70;11.85;;;;;;;24.60;60.66;93143.47;5079264;28;20732;-77
2023/09/23 08:42:08;;;;;;;17.95;11.18;;;;;;;24.56;62.12;93150.66;5089648;28;20195;-78
2023/09/23 08:44:35;;;;;;;18.98;10.48;;;;;;;24.68;59.19;93132.63;5088896;28;20693;-79
2023/09/23 08:47:00;;;;;;;20.15;10.57;;;;;;;24.59;59.71;93139.28;5089437;28;20208;-78
2023/09/23 08:49:28;;;;;;;27.92;11.07;;;;;;;24.57;59.46;93144.19;5088901;28;20229;-77
2023/09/23 08:51:57;;;;;;;13.20;10.70;;;;;;;24.76;60.58;93130.88;5083748;28;20190;-78
2023/09/23 08:54:25;;;;;;;14.30;10.63;;;;;;;24.91;59.42;93135.34;5081327;28;20224;-77
2023/09/23 08:56:52;;;;;;;30.02;11.00;;;;;;;24.99;58.80;93143.16;5089128;28;20211;-77
2023/09/23 08:59:17;;;;;;;22.20;10.13;;;;;;;25.36;57.18;93145.31;5088534;28;20291;-78
2023/09/23 09:01:44;;;;;;;19.00;11.30;;;;;;;25.37;56.74;93136.19;5081579;28;20731;-78
2023/09/23 09:04:11;;;;;;;22.40;10.55;;;;;;;25.20;57.83;93138.16;5084057;28;20312;-77
2023/09/23 09:06:46;;;;;;;18.67;11.10;;;;;;;25.11;58.14;93144.84;5079379;28;20215;-78
2023/09/23 09:09:11;;;;;;;22.73;10.38;;;;;;;25.48;57.88;93137.88;5073514;28;20231;-78
2023/09/23 09:11:37;;;;;;;23.92;11.30;;;;;;;24.94;57.29;93119.38;5081568;28;20176;-78
2023/09/23 09:14:02;;;;;;;24.30;10.95;;;;;;;25.09;56.25;93125.75;5088475;28;20219;-77
2023/09/23 09:16:28;;;;;;;19.30;11.55;;;;;;;25.57;55.22;93127.75;5088741;28;20191;-78
2023/09/23 09:18:53;;;;;;;28.85;11.55;;;;;;;25.91;54.44;93129.41;5086102;28;20257;-77
2023/09/23 09:21:19;;;;;;;23.35;11.18;;;;;;;26.03;56.28;93126.53;5088875;28;20790;-78
2023/09/23 09:23:45;;;;;;;16.33;11.15;;;;;;;25.66;56.66;93124.81;5085994;28;20224;-77
2023/09/23 09:26:10;;;;;;;19.92;11.68;;;;;;;25.49;58.34;93117.28;5088159;28;20202;-78
2023/09/23 09:28:35;;;;;;;16.83;10.85;;;;;;;25.93;55.15;93108.38;5088292;28;20220;-77
2023/09/23 09:31:01;;;;;;;21.17;11.05;;;;;;;26.21;52.75;93116.84;5082337;28;20183;-78
2023/09/23 09:33:29;;;;;;;19.23;11.45;;;;;;;26.05;54.36;93121.59;5087500;28;20231;-80
2023/09/23 09:35:55;;;;;;;28.80;10.98;;;;;;;25.91;53.21;93117.91;5089287;28;21105;-78
2023/09/23 09:38:23;;;;;;;13.77;10.30;;;;;;;25.92;53.12;93120.22;5087534;28;20232;-76
2023/09/23 09:40:50;;;;;;;23.77;10.18;;;;;;;26.27;52.36;93107.34;5089280;28;20191;-78
2023/09/23 09:43:17;;;;;;;19.77;11.38;;;;;;;26.05;51.44;93096.75;5089050;28;20216;-78
2023/09/23 09:45:44;;;;;;;15.77;10.38;;;;;;;26.19;52.60;93092.34;5085518;28;20206;-78
2023/09/23 09:48:12;;;;;;;24.05;12.63;;;;;;;26.19;52.84;93100.38;5080937;28;20239;-78
2023/09/23 09:50:39;;;;;;;28.80;11.65;;;;;;;26.41;51.72;93104.84;5078805;28;20194;-77
2023/09/23 09:53:05;;;;;;;17.05;11.05;;;;;;;26.05;53.87;93091.38;5074295;28;20281;-77
2023/09/23 09:55:31;;;;;;;25.48;11.55;;;;;;;26.42;53.89;93100.28;5079603;28;20206;-78
2023/09/23 09:57:57;;;;;;;20.08;10.77;;;;;;;26.33;53.86;93092.53;5078970;28;20217;-78
2023/09/23 10:00:30;;;;;;;26.17;12.07;;;;;;;25.90;53.83;93078.94;5088815;28;20214;-78
2023/09/23 10:03:01;;;;;;;19.08;10.85;;;;;;;26.23;53.84;93087.03;5078913;28;20240;-78
2023/09/23 10:05:33;;;;;;;17.83;11.15;;;;;;;26.51;52.61;93088.16;5082930;28;20236;-78
2023/09/23 10:07:59;;;;;;;21.20;10.93;;;;;;;26.55;51.20;93078.22;5083558;28;20650;-77
2023/09/23 10:10:58;;;;;;;22.63;10.68;;;;;;;26.72;49.89;93084.97;5085451;28;20326;-78
2023/09/23 10:13:23;;;;;;;15.77;10.40;;;;;;;26.88;49.75;93079.38;5079190;28;20244;-78
2023/09/23 10:15:49;;;;;;;14.10;11.02;;;;;;;26.88;50.06;93074.03;5080732;28;20185;-79
2023/09/23 10:18:19;;;;;;;17.08;9.82;;;;;;;26.76;49.20;93067.00;5069905;28;20270;-76
2023/09/23 10:20:49;;;;;;;21.63;10.48;;;;;;;27.19;50.51;93063.59;5067161;28;20241;-78
2023/09/23 10:23:17;;;;;;;15.35;10.63;;;;;;;27.50;48.47;93056.97;5074423;28;20276;-78
2023/09/23 10:25:43;;;;;;;19.95;11.68;;;;;;;27.30;49.39;93064.47;5088476;28;20231;-78
2023/09/23 10:28:25;;;;;;;21.50;12.10;;;;;;;27.50;47.63;93062.34;5088173;28;20216;-78
2023/09/23 10:31:02;;;;;;;11.52;9.90;;;;;;;27.55;47.63;93059.31;5085162;28;20177;-79
2023/09/23 10:33:30;;;;;;;23.30;10.35;;;;;;;27.34;51.02;93053.78;5088843;28;20224;-77
2023/09/23 10:35:59;;;;;;;22.75;10.57;;;;;;;27.54;50.04;93061.22;5086704;28;20196;-76
2023/09/23 10:38:28;;;;;;;17.45;10.80;;;;;;;27.62;47.51;93054.00;5079880;28;20248;-78
2023/09/23 10:40:54;;;;;;;28.60;10.93;;;;;;;27.47;47.27;93055.03;5075137;28;20208;-78
2023/09/23 10:43:23;;;;;;;19.98;10.80;;;;;;;27.18;46.95;93047.88;5084890;28;20227;-78
2023/09/23 10:45:53;;;;;;;27.05;10.25;;;;;;;27.42;47.76;93044.66;5088616;28;20212;-78
2023/09/23 10:48:18;;;;;;;18.05;10.55;;;;;;;27.96;45.79;93042.75;5088603;28;20921;-78
2023/09/23 10:50:44;;;;;;;25.58;10.82;;;;;;;28.00;46.39;93038.16;5084234;28;20219;-78
2023/09/23 10:53:11;;;;;;;24.45;10.57;;;;;;;27.93;45.86;93032.75;5089607;28;20832;-78
2023/09/23 10:55:37;;;;;;;17.13;10.63;;;;;;;28.11;45.69;93035.53;5089497;28;20219;-76
2023/09/23 10:58:04;;;;;;;20.38;11.00;;;;;;;28.10;45.51;93031.28;5087739;28;20221;-78
2023/09/23 11:00:33;;;;;;;16.27;10.80;;;;;;;28.31;46.85;93028.72;5090710;28;20188;-77
2023/09/23 11:03:11;;;;;;;21.85;11.20;;;;;;;28.38;46.86;93026.03;5089304;28;20284;-77
2023/09/23 11:05:38;;;;;;;27.75;11.23;;;;;;;28.28;46.16;93019.47;5087403;28;20173;-77
2023/09/23 11:08:10;;;;;;;17.20;9.93;;;;;;;28.20;46.53;93017.91;5091042;28;20220;-77
2023/09/23 11:10:41;;;;;;;16.77;10.65;;;;;;;28.21;47.19;93021.38;5081522;28;20177;-77
2023/09/23 11:13:08;;;;;;;23.50;10.85;;;;;;;28.25;45.44;92998.75;5089803;28;20284;-78
2023/09/23 11:15:36;;;;;;;22.75;11.43;;;;;;;28.50;44.02;93000.78;5089566;28;20196;-78